Time;durP1;ratioP1;P1;durP2;ratioP2;P2;SDS_P1;SDS_P2;PMS_P1;PMS_P2;Temp;Humidity;BMP_temperature;BMP_pressure;BME280_temperature;BME280_humidity;BME280_pressure;Samples;Min_cycle;Max_cycle;Signal;HPM_P1;HPM_P2
2022/11/12 00:01:12;;;;;;;15.25;8.27;;;;;;;7.33;100.00;101510.81;6298123;28;20450;-73
2022/11/12 00:04:12;;;;;;;19.42;9.70;;;;;;;7.49;100.00;101521.69;6298025;28;20045;-72
2022/11/12 00:07:13;;;;;;;19.23;9.05;;;;;;;7.39;100.00;101524.53;6296750;28;20369;-72
2022/11/12 00:10:14;;;;;;;18.17;9.23;;;;;;;7.33;100.00;101526.41;6297934;28;20052;-72
2022/11/12 00:13:15;;;;;;;17.33;9.43;;;;;;;7.32;100.00;101522.09;6297739;28;20040;-72
2022/11/12 00:16:18;;;;;;;16.05;8.52;;;;;;;7.28;100.00;101518.72;6297596;28;20491;-72
2022/11/12 00:19:19;;;;;;;21.92;9.65;;;;;;;7.31;100.00;101515.19;6296595;28;20039;-72
2022/11/12 00:22:20;;;;;;;16.27;9.18;;;;;;;7.31;100.00;101513.47;6296246;28;20044;-72
2022/11/12 00:25:21;;;;;;;19.37;9.93;;;;;;;7.30;100.00;101524.72;6296342;28;20043;-72
2022/11/12 00:28:22;;;;;;;20.55;9.05;;;;;;;7.29;100.00;101524.75;6296291;28;20281;-72
2022/11/12 00:31:22;;;;;;;17.75;8.88;;;;;;;7.29;100.00;101525.63;6297346;28;20480;-72
2022/11/12 00:34:23;;;;;;;15.07;9.00;;;;;;;7.30;100.00;101526.47;6279247;28;20056;-73
2022/11/12 00:37:29;;;;;;;13.00;7.68;;;;;;;7.30;100.00;101531.69;6296082;28;20037;-72
2022/11/12 00:40:30;;;;;;;15.77;8.77;;;;;;;7.32;100.00;101522.09;6296052;28;20037;-72
2022/11/12 00:43:35;;;;;;;14.63;8.55;;;;;;;7.34;100.00;101528.13;6297302;28;20044;-72
2022/11/12 00:46:36;;;;;;;16.17;8.45;;;;;;;7.31;100.00;101531.66;6279148;28;20055;-73
2022/11/12 00:49:38;;;;;;;17.63;8.30;;;;;;;7.26;100.00;101531.72;6297078;28;20040;-72
2022/11/12 00:52:41;;;;;;;11.13;7.05;;;;;;;7.30;100.00;101534.28;6297000;28;20127;-72
2022/11/12 00:55:42;;;;;;;12.90;7.65;;;;;;;7.33;100.00;101529.88;6278952;28;20453;-72
2022/11/12 00:58:43;;;;;;;14.63;7.32;;;;;;;7.31;100.00;101525.56;6296671;28;20059;-72
2022/11/12 01:01:43;;;;;;;14.50;7.68;;;;;;;7.30;100.00;101527.31;6295788;28;20087;-72
2022/11/12 01:04:44;;;;;;;13.07;7.57;;;;;;;7.29;100.00;101528.22;6279009;28;20504;-72
2022/11/12 01:07:46;;;;;;;13.50;8.27;;;;;;;7.32;100.00;101527.31;6296984;28;20391;-72
2022/11/12 01:10:46;;;;;;;16.80;9.05;;;;;;;7.28;100.00;101512.69;6295528;28;20056;-72
2022/11/12 01:13:53;;;;;;;18.73;9.52;;;;;;;7.30;100.00;101519.53;6296957;28;20053;-72
2022/11/12 01:16:54;;;;;;;21.52;9.18;;;;;;;7.32;100.00;101519.50;6296822;28;20040;-72
2022/11/12 01:19:55;;;;;;;16.90;9.45;;;;;;;7.28;100.00;101513.53;6278846;28;20045;-72
2022/11/12 01:22:56;;;;;;;17.33;8.63;;;;;;;7.28;100.00;101510.09;6296608;28;20127;-72
2022/11/12 01:25:56;;;;;;;14.65;7.95;;;;;;;7.26;100.00;101510.97;6295606;28;20121;-72
2022/11/12 01:28:57;;;;;;;12.45;7.50;;;;;;;7.28;100.00;101495.34;6296764;28;20048;-72
2022/11/12 01:31:58;;;;;;;15.40;7.90;;;;;;;7.37;100.00;101496.88;6296660;28;20041;-72
2022/11/12 01:34:58;;;;;;;12.45;7.43;;;;;;;7.35;100.00;101504.72;6294732;28;20173;-72
2022/11/12 01:37:59;;;;;;;12.27;7.95;;;;;;;7.32;100.00;101493.53;6295978;28;20041;-73
2022/11/12 01:41:02;;;;;;;12.93;8.02;;;;;;;7.34;100.00;101489.16;6295374;28;20515;-73
2022/11/12 01:44:14;;;;;;;16.70;8.68;;;;;;;7.39;100.00;101490.75;6295217;28;20112;-72
2022/11/12 01:47:20;;;;;;;14.75;8.57;;;;;;;7.38;100.00;101496.84;6295226;28;20053;-72
2022/11/12 01:50:26;;;;;;;13.75;8.05;;;;;;;7.41;100.00;101490.72;6295534;28;20040;-72
2022/11/12 01:53:30;;;;;;;17.02;8.52;;;;;;;7.47;100.00;101491.44;6295210;28;20047;-72
2022/11/12 01:56:35;;;;;;;14.77;8.80;;;;;;;7.48;100.00;101487.06;6296413;28;20090;-72
2022/11/12 01:59:42;;;;;;;16.77;9.43;;;;;;;7.43;100.00;101483.72;6295080;28;20041;-72
2022/11/12 02:02:48;;;;;;;17.85;9.75;;;;;;;7.47;100.00;101478.44;6296403;28;20040;-72
2022/11/12 02:05:58;;;;;;;15.75;9.10;;;;;;;7.49;100.00;101475.78;6296478;28;20064;-72
2022/11/12 02:08:59;;;;;;;14.30;8.35;;;;;;;7.51;100.00;101466.22;6294875;28;20059;-72
2022/11/12 02:12:00;;;;;;;24.33;10.93;;;;;;;7.53;100.00;101469.63;6299027;28;20049;-72
2022/11/12 02:15:01;;;;;;;12.20;8.05;;;;;;;7.52;100.00;101464.47;6299334;28;20128;-72
2022/11/12 02:18:02;;;;;;;24.08;9.55;;;;;;;7.55;100.00;101472.19;6282343;28;20059;-72
2022/11/12 02:21:07;;;;;;;20.50;9.65;;;;;;;7.53;100.00;101467.03;6300454;28;20044;-73
2022/11/12 02:24:11;;;;;;;26.75;10.45;;;;;;;7.55;100.00;101475.63;6299242;28;20450;-72
2022/11/12 02:27:12;;;;;;;23.77;10.55;;;;;;;7.58;100.00;101474.72;6298996;28;20480;-72
2022/11/12 02:30:12;;;;;;;23.98;11.63;;;;;;;7.54;100.00;101471.34;6300343;28;20123;-72
2022/11/12 02:33:14;;;;;;;22.05;10.73;;;;;;;7.57;100.00;101481.63;6299037;28;20043;-72
2022/11/12 02:36:15;;;;;;;20.30;10.80;;;;;;;7.56;100.00;101479.94;6299982;28;20105;-72
2022/11/12 02:39:20;;;;;;;25.38;12.02;;;;;;;7.60;100.00;101478.13;6298754;28;20075;-72
2022/11/12 02:42:21;;;;;;;18.65;9.88;;;;;;;7.59;100.00;101487.63;6298542;28;20063;-72
2022/11/12 02:45:22;;;;;;;16.85;9.82;;;;;;;7.64;100.00;101484.94;6298626;28;20037;-72
2022/11/12 02:48:23;;;;;;;20.15;10.02;;;;;;;7.64;100.00;101482.34;6298628;28;20137;-72
2022/11/12 02:51:24;;;;;;;18.85;9.98;;;;;;;7.64;100.00;101488.38;6299688;28;20044;-72
2022/11/12 02:54:24;;;;;;;14.98;9.15;;;;;;;7.66;100.00;101484.00;6298400;28;20045;-72
2022/11/12 02:57:26;;;;;;;20.40;10.90;;;;;;;7.70;100.00;101491.72;6299489;28;20102;-73
2022/11/12 03:00:27;;;;;;;19.83;10.85;;;;;;;7.72;100.00;101503.78;6298381;28;20056;-72
2022/11/12 03:03:28;;;;;;;17.63;10.55;;;;;;;7.66;100.00;101503.94;6298234;28;20044;-72
2022/11/12 03:06:28;;;;;;;17.70;9.70;;;;;;;7.62;100.00;101510.97;6297925;28;20182;-74
2022/11/12 03:09:29;;;;;;;17.92;10.52;;;;;;;7.62;100.00;101510.97;6297900;28;20052;-75
2022/11/12 03:12:33;;;;;;;20.45;10.65;;;;;;;7.64;100.00;101516.97;6299279;28;20033;-75
2022/11/12 03:15:36;;;;;;;21.60;10.30;;;;;;;7.67;100.00;101516.03;6298034;28;20099;-75
2022/11/12 03:18:40;;;;;;;20.08;10.18;;;;;;;7.70;100.00;101517.69;6281129;28;20048;-75
2022/11/12 03:21:41;;;;;;;22.40;10.40;;;;;;;7.61;100.00;101521.38;6298881;28;20067;-75
2022/11/12 03:24:42;;;;;;;23.63;9.93;;;;;;;7.66;100.00;101517.78;6298916;28;20496;-74
2022/11/12 03:27:43;;;;;;;15.43;9.13;;;;;;;7.80;100.00;101524.34;6298695;28;20044;-76
2022/11/12 03:30:45;;;;;;;18.08;9.07;;;;;;;7.82;100.00;101520.84;6297028;28;20044;-75
2022/11/12 03:33:46;;;;;;;21.42;10.32;;;;;;;7.82;100.00;101513.06;6298208;28;20132;-75
2022/11/12 03:36:47;;;;;;;23.27;12.10;;;;;;;7.84;100.00;101502.59;6298480;28;20491;-75
2022/11/12 03:39:48;;;;;;;18.40;10.82;;;;;;;7.86;100.00;101500.81;6298615;28;20055;-75
2022/11/12 03:42:50;;;;;;;19.45;10.63;;;;;;;7.87;100.00;101499.94;6298510;28;20036;-74
2022/11/12 03:45:56;;;;;;;27.20;10.93;;;;;;;7.87;100.00;101498.19;6298474;28;20053;-75
2022/11/12 03:48:58;;;;;;;17.77;10.32;;;;;;;7.86;100.00;101499.09;6298517;28;20119;-75
2022/11/12 03:51:58;;;;;;;23.73;11.52;;;;;;;7.86;100.00;101500.81;6298526;28;20051;-74
2022/11/12 03:54:59;;;;;;;21.17;10.77;;;;;;;7.90;100.00;101492.03;6298409;28;20044;-74
2022/11/12 03:58:00;;;;;;;21.23;11.23;;;;;;;7.93;100.00;101491.97;6297918;28;20063;-75
2022/11/12 04:01:00;;;;;;;21.05;11.10;;;;;;;7.95;100.00;101492.78;6298133;28;20051;-75
2022/11/12 04:04:03;;;;;;;23.92;11.50;;;;;;;7.97;100.00;101496.19;6296819;28;20047;-75
2022/11/12 04:10:25;;;;;;;20.02;10.73;;;;;;;7.99;100.00;101502.19;6276664;28;20071;-75
2022/11/12 04:13:26;;;;;;;14.68;8.82;;;;;;;7.96;100.00;101504.88;6296705;28;20036;-75
2022/11/12 04:23:05;;;;;;;35.00;11.95;;;;;;;8.04;100.00;101495.13;6297644;28;20049;-75
2022/11/12 04:26:24;;;;;;;18.75;10.68;;;;;;;8.00;100.00;101487.44;6296503;28;20090;-75
2022/11/12 04:32:48;;;;;;;13.43;8.43;;;;;;;7.97;100.00;101484.91;6297406;28;20419;-75
2022/11/12 04:35:49;;;;;;;19.15;9.02;;;;;;;8.03;100.00;101477.81;6296240;28;20048;-75
2022/11/12 04:38:52;;;;;;;17.02;8.88;;;;;;;8.11;100.00;101474.16;6297474;28;20082;-75
2022/11/12 04:45:12;;;;;;;12.95;8.55;;;;;;;8.02;100.00;101488.25;6297371;28;20490;-74
2022/11/12 04:48:12;;;;;;;18.92;10.38;;;;;;;8.03;100.00;101493.41;6296284;28;20052;-75
2022/11/12 04:54:32;;;;;;;17.67;9.00;;;;;;;8.05;100.00;101502.03;6297308;28;20456;-75
2022/11/12 04:57:33;;;;;;;18.00;9.82;;;;;;;8.00;100.00;101506.50;6296995;28;20147;-75
2022/11/12 05:00:34;;;;;;;20.77;9.95;;;;;;;8.02;100.00;101496.06;6297255;28;20049;-74
2022/11/12 05:03:35;;;;;;;13.95;7.88;;;;;;;8.03;100.00;101509.03;6296046;28;20059;-75
2022/11/12 05:06:51;;;;;;;19.63;11.15;;;;;;;7.92;100.00;101503.25;6306487;28;20028;-77
2022/11/12 05:09:52;;;;;;;25.80;15.15;;;;;;;7.96;100.00;101509.22;6322174;28;20039;-77
2022/11/12 05:12:53;;;;;;;19.90;12.88;;;;;;;8.00;100.00;101513.44;6320943;28;20036;-75
2022/11/12 05:15:53;;;;;;;25.30;12.68;;;;;;;8.02;100.00;101522.06;6321921;28;20040;-75
2022/11/12 05:18:54;;;;;;;23.90;11.55;;;;;;;8.08;100.00;101525.31;6320848;28;20050;-75
2022/11/12 05:22:04;;;;;;;18.98;10.60;;;;;;;8.15;100.00;101526.00;6321346;28;20051;-75
2022/11/12 05:25:06;;;;;;;22.55;8.98;;;;;;;8.10;100.00;101514.91;6321369;28;20046;-75
2022/11/12 05:28:07;;;;;;;18.95;10.07;;;;;;;8.05;100.00;101520.22;6320515;28;20055;-75
2022/11/12 05:31:10;;;;;;;19.92;11.52;;;;;;;8.13;100.00;101524.34;6303839;28;20048;-75
2022/11/12 05:34:11;;;;;;;20.90;12.32;;;;;;;8.15;100.00;101530.38;6320437;28;20051;-75
2022/11/12 05:37:13;;;;;;;32.13;14.65;;;;;;;8.14;100.00;101531.28;6321682;28;20471;-75
2022/11/12 05:40:16;;;;;;;27.92;13.65;;;;;;;8.14;100.00;101533.88;6320796;28;20047;-75
2022/11/12 05:43:17;;;;;;;25.63;12.23;;;;;;;8.13;100.00;101535.59;6320626;28;20036;-75
2022/11/12 05:46:18;;;;;;;18.73;10.82;;;;;;;8.17;100.00;101537.22;6323581;28;20044;-75
2022/11/12 05:49:19;;;;;;;20.65;10.70;;;;;;;8.21;100.00;101538.84;6326334;28;20044;-75
2022/11/12 05:52:27;;;;;;;19.60;9.98;;;;;;;8.28;100.00;101544.75;6326337;28;20067;-74
2022/11/12 05:55:30;;;;;;;21.48;10.27;;;;;;;8.36;100.00;101553.19;6325282;28;20411;-75
2022/11/12 05:58:31;;;;;;;20.60;10.05;;;;;;;8.35;100.00;101553.22;6307795;28;20054;-77
2022/11/12 06:01:33;;;;;;;24.38;12.50;;;;;;;8.35;100.00;101548.88;6325067;28;20419;-77
2022/11/12 06:04:36;;;;;;;18.88;10.43;;;;;;;8.39;100.00;101550.50;6324979;28;20055;-75
2022/11/12 06:07:37;;;;;;;18.20;9.13;;;;;;;8.36;100.00;101548.00;6307638;28;20068;-75
2022/11/12 06:10:39;;;;;;;17.13;9.25;;;;;;;8.42;100.00;101550.44;6324918;28;20048;-75
2022/11/12 06:13:40;;;;;;;31.92;10.77;;;;;;;8.44;100.00;101550.38;6324854;28;20082;-77
2022/11/12 06:16:43;;;;;;;16.33;9.82;;;;;;;8.44;100.00;101552.97;6324454;28;20407;-77
2022/11/12 06:19:46;;;;;;;19.08;10.32;;;;;;;8.52;100.00;101560.56;6325785;28;20044;-77
2022/11/12 06:22:46;;;;;;;17.77;10.60;;;;;;;8.57;100.00;101556.13;6325566;28;20075;-75
2022/11/12 06:25:47;;;;;;;22.70;10.93;;;;;;;8.60;100.00;101551.66;6325634;28;20044;-72
2022/11/12 06:28:49;;;;;;;23.60;11.48;;;;;;;8.68;100.00;101561.84;6324335;28;20059;-72
2022/11/12 06:31:49;;;;;;;31.65;16.65;;;;;;;8.73;100.00;101564.31;6324082;28;20142;-72
2022/11/12 06:34:52;;;;;;;28.13;14.02;;;;;;;8.72;100.00;101553.06;6324187;28;20141;-75
2022/11/12 06:37:54;;;;;;;20.08;11.30;;;;;;;8.80;100.00;101569.28;6325224;28;20173;-75
2022/11/12 06:40:54;;;;;;;17.67;9.95;;;;;;;8.79;100.00;101569.34;6323962;28;20041;-74
2022/11/12 06:43:55;;;;;;;18.77;11.13;;;;;;;8.76;100.00;101578.09;6323816;28;20078;-74
2022/11/12 06:46:56;;;;;;;24.88;11.55;;;;;;;8.63;100.00;101579.34;6306689;28;20101;-77
2022/11/12 06:49:57;;;;;;;18.00;9.48;;;;;;;8.65;100.00;101577.56;6323837;28;20055;-74
2022/11/12 06:52:58;;;;;;;18.63;9.70;;;;;;;8.71;100.00;101586.91;6324869;28;20464;-74
2022/11/12 06:56:04;;;;;;;19.15;10.13;;;;;;;8.81;100.00;101597.03;6322863;28;20047;-74
2022/11/12 06:59:05;;;;;;;16.67;9.50;;;;;;;8.93;100.00;101589.75;6323281;28;20437;-74
2022/11/12 07:02:06;;;;;;;19.73;10.68;;;;;;;9.12;100.00;101588.31;6323038;28;20048;-74
2022/11/12 07:05:06;;;;;;;28.15;11.30;;;;;;;9.18;100.00;101598.56;6322780;28;20471;-72
2022/11/12 07:08:07;;;;;;;22.17;10.20;;;;;;;9.17;100.00;101596.84;6323138;28;20048;-74
2022/11/12 07:11:08;;;;;;;20.35;10.57;;;;;;;9.27;100.00;101608.69;6323258;28;20056;-75
2022/11/12 07:14:09;;;;;;;31.75;17.05;;;;;;;9.28;100.00;101606.91;6324349;28;20043;-75
2022/11/12 07:17:10;;;;;;;33.35;16.33;;;;;;;9.40;100.00;101614.34;6324248;28;20035;-75
2022/11/12 07:20:11;;;;;;;21.25;13.73;;;;;;;9.40;100.00;101608.28;6324406;28;20048;-75
2022/11/12 07:23:12;;;;;;;17.97;9.63;;;;;;;9.44;100.00;101600.31;6306017;28;20048;-75
2022/11/12 07:26:19;;;;;;;17.42;10.02;;;;;;;9.42;100.00;101609.94;6322940;28;20307;-75
2022/11/12 07:29:20;;;;;;;23.08;10.65;;;;;;;9.43;100.00;101603.84;6322119;28;20082;-74
2022/11/12 07:32:23;;;;;;;17.42;9.88;;;;;;;9.55;100.00;101591.31;6304624;28;20047;-75
2022/11/12 07:35:26;;;;;;;20.23;10.00;;;;;;;9.69;100.00;101591.72;6322484;28;20043;-75
2022/11/12 07:38:29;;;;;;;20.08;9.75;;;;;;;9.84;100.00;101591.22;6322943;28;20044;-75
2022/11/12 07:41:30;;;;;;;17.58;9.02;;;;;;;9.82;100.00;101576.53;6321834;28;20551;-75
2022/11/12 07:44:31;;;;;;;19.48;9.43;;;;;;;10.04;100.00;101590.53;6304915;28;20104;-75
2022/11/12 07:47:31;;;;;;;19.02;9.73;;;;;;;10.29;100.00;101589.69;6297531;28;20099;-75
2022/11/12 07:50:32;;;;;;;17.25;9.73;;;;;;;10.34;100.00;101592.19;6279894;28;20056;-72
2022/11/12 07:53:35;;;;;;;16.55;9.40;;;;;;;10.38;100.00;101591.16;6296275;28;20060;-72
2022/11/12 07:56:36;;;;;;;14.40;9.93;;;;;;;10.38;100.00;101592.00;6297398;28;20056;-72
2022/11/12 07:59:37;;;;;;;15.98;9.93;;;;;;;10.43;100.00;101586.63;6305337;28;20488;-73
2022/11/12 08:02:40;;;;;;;22.70;9.68;;;;;;;10.40;100.00;101595.41;6321149;28;20479;-73
2022/11/12 08:05:41;;;;;;;14.65;8.68;;;;;;;10.31;100.00;101590.50;6322394;28;20035;-73
2022/11/12 08:08:41;;;;;;;17.30;9.13;;;;;;;10.29;100.00;101594.91;6320097;28;20461;-75
2022/11/12 08:11:42;;;;;;;19.10;9.23;;;;;;;10.30;100.00;101603.63;6321072;28;20487;-74
2022/11/12 08:14:43;;;;;;;16.95;9.38;;;;;;;10.29;100.00;101597.50;6322178;28;20044;-75
2022/11/12 08:17:43;;;;;;;15.02;9.02;;;;;;;10.36;100.00;101601.66;6322401;28;20036;-75
2022/11/12 08:20:46;;;;;;;16.75;8.93;;;;;;;10.59;100.00;101607.81;6320975;28;20471;-75
2022/11/12 08:23:47;;;;;;;18.85;9.63;;;;;;;10.59;100.00;101605.19;6320889;28;20339;-75
2022/11/12 08:26:48;;;;;;;16.98;9.48;;;;;;;10.94;100.00;101605.66;6320825;28;20044;-74
2022/11/12 08:29:49;;;;;;;17.90;8.82;;;;;;;11.10;100.00;101601.53;6319501;28;20118;-75
2022/11/12 08:33:02;;;;;;;16.67;8.23;;;;;;;11.09;100.00;101610.28;6320633;28;20403;-75
2022/11/12 08:36:08;;;;;;;17.10;9.15;;;;;;;11.13;100.00;101609.25;6321711;28;20404;-75
2022/11/12 08:39:09;;;;;;;33.55;10.20;;;;;;;11.15;100.00;101602.19;6321680;28;20546;-75
2022/11/12 08:55:03;;;;;;;18.98;10.23;;;;;;;12.38;94.94;101627.75;6387879;27;20386;-76
2022/11/12 08:58:05;;;;;;;17.15;10.30;;;;;;;12.75;92.54;101633.97;6368778;27;20083;-75
2022/11/12 09:01:09;;;;;;;14.98;9.63;;;;;;;12.88;89.21;101629.84;6367876;28;20062;-74
2022/11/12 09:04:10;;;;;;;19.27;9.95;;;;;;;12.86;90.77;101629.91;6369165;28;20073;-76
2022/11/12 09:07:10;;;;;;;15.50;8.82;;;;;;;12.96;89.20;101634.75;6367839;28;20059;-76
2022/11/12 09:10:13;;;;;;;17.85;9.20;;;;;;;13.23;88.31;101624.75;6367799;28;20410;-76
2022/11/12 09:13:16;;;;;;;18.02;9.05;;;;;;;13.42;86.04;101624.75;6401949;27;20039;-76
2022/11/12 09:16:16;;;;;;;15.25;9.15;;;;;;;13.55;85.48;101620.63;6350873;28;20062;-76
2022/11/12 09:19:17;;;;;;;13.13;7.65;;;;;;;13.65;87.98;101616.63;6369313;27;20063;-76
2022/11/12 09:22:18;;;;;;;14.93;7.95;;;;;;;13.88;85.24;101610.25;6366996;28;20071;-76
2022/11/12 09:25:21;;;;;;;15.52;7.80;;;;;;;14.08;84.56;101617.13;6367283;28;20063;-76
2022/11/12 09:28:22;;;;;;;13.30;8.55;;;;;;;14.21;81.00;101619.13;6368354;28;20047;-76
2022/11/12 09:31:24;;;;;;;14.50;8.48;;;;;;;14.17;82.03;101622.84;6366891;28;20051;-75
2022/11/12 09:34:25;;;;;;;13.73;7.72;;;;;;;14.30;81.39;101623.88;6368093;27;20042;-75
2022/11/12 09:37:25;;;;;;;20.50;8.52;;;;;;;14.50;81.37;101628.94;6366655;28;20051;-75
2022/11/12 09:40:49;;;;;;;13.20;7.03;;;;;;;14.27;79.33;101627.53;6367914;27;20437;-74
2022/11/12 09:43:53;;;;;;;12.48;7.75;;;;;;;14.51;82.47;101622.75;6366412;28;20130;-75
2022/11/12 09:46:59;;;;;;;14.95;7.57;;;;;;;14.55;81.17;101619.97;6383710;27;20055;-75
2022/11/12 09:50:17;;;;;;;16.00;7.60;;;;;;;14.84;81.31;101621.06;6367613;27;20043;-75
2022/11/12 09:53:19;;;;;;;19.40;8.40;;;;;;;14.87;78.73;101632.28;6364834;28;20119;-75
2022/11/12 09:56:21;;;;;;;15.00;8.05;;;;;;;15.03;79.04;101628.81;6366311;27;20479;-75
2022/11/12 09:59:26;;;;;;;14.00;8.52;;;;;;;15.10;77.02;101630.19;6349312;28;20050;-75
2022/11/12 10:02:34;;;;;;;16.77;7.93;;;;;;;15.06;76.56;101618.97;6349231;28;20043;-74
2022/11/12 10:05:46;;;;;;;12.27;7.53;;;;;;;15.21;76.06;101625.16;6349003;28;20070;-75
2022/11/12 10:08:59;;;;;;;12.15;7.38;;;;;;;15.17;72.91;101626.25;6349064;28;20040;-75
2022/11/12 10:12:30;;;;;;;15.95;8.35;;;;;;;15.00;73.59;101628.97;6349880;28;20071;-75
2022/11/12 10:19:15;;;;;;;13.68;7.95;;;;;;;15.34;74.38;101622.72;6350053;28;20052;-75
2022/11/12 10:22:48;;;;;;;14.20;7.53;;;;;;;15.43;76.10;101623.97;6349857;28;20065;-74
2022/11/12 10:25:52;;;;;;;13.35;7.70;;;;;;;15.37;73.22;101634.84;6348759;28;20047;-76
2022/11/12 10:29:29;;;;;;;14.27;6.82;;;;;;;15.35;72.02;101629.66;6348345;28;20059;-76
2022/11/12 10:32:30;;;;;;;12.27;6.60;;;;;;;15.48;75.10;101624.53;6349473;28;20104;-75
2022/11/12 10:35:31;;;;;;;16.02;7.50;;;;;;;15.57;74.68;101634.56;6348092;28;20040;-75
2022/11/12 10:38:34;;;;;;;13.52;7.68;;;;;;;15.60;73.30;101630.91;6349546;28;20047;-75
2022/11/12 10:41:35;;;;;;;13.98;7.95;;;;;;;15.62;73.04;101615.88;6348179;28;20470;-76
2022/11/12 10:44:37;;;;;;;12.80;7.22;;;;;;;15.63;73.18;101626.31;6349464;28;20048;-75
2022/11/12 10:47:41;;;;;;;14.15;8.35;;;;;;;15.58;73.24;101622.25;6349355;28;20096;-75
2022/11/12 10:50:42;;;;;;;13.43;8.00;;;;;;;15.68;73.33;101626.03;6346574;28;20463;-75
2022/11/12 10:53:43;;;;;;;11.38;6.90;;;;;;;15.78;73.66;101626.41;6348915;28;20052;-75
2022/11/12 10:56:44;;;;;;;12.80;6.22;;;;;;;15.78;72.76;101619.34;6347062;27;20054;-74
2022/11/12 10:59:44;;;;;;;15.00;6.97;;;;;;;15.81;73.68;101620.94;6348319;27;20570;-76
2022/11/12 11:02:49;;;;;;;16.13;7.78;;;;;;;15.31;74.54;101618.44;6345972;28;20055;-75
2022/11/12 11:06:03;;;;;;;19.20;7.60;;;;;;;15.37;75.78;101622.53;6345357;28;20044;-75
2022/11/12 11:09:12;;;;;;;12.00;7.07;;;;;;;15.42;76.10;101623.13;6347513;28;20044;-75
2022/11/12 11:12:31;;;;;;;16.10;7.22;;;;;;;15.51;73.56;101611.22;6347671;28;20040;-75
2022/11/12 11:15:32;;;;;;;15.13;7.78;;;;;;;15.69;73.03;101615.44;6348147;28;20069;-75
2022/11/12 11:18:38;;;;;;;15.93;7.10;;;;;;;15.76;74.48;101601.97;6347052;28;20103;-75
2022/11/12 11:21:52;;;;;;;17.42;7.57;;;;;;;15.77;72.45;101601.84;6348366;28;20039;-75
2022/11/12 11:25:07;;;;;;;12.00;6.15;;;;;;;15.11;70.81;101602.94;6348342;28;20402;-74
2022/11/12 11:28:16;;;;;;;16.25;7.18;;;;;;;15.70;72.42;101603.13;6348252;28;20114;-75
2022/11/12 11:31:33;;;;;;;15.80;7.55;;;;;;;15.78;69.97;101605.34;6346934;28;20050;-75
2022/11/12 11:34:49;;;;;;;12.50;7.35;;;;;;;15.46;71.70;101595.72;6346916;28;20112;-75
2022/11/12 11:38:31;;;;;;;16.35;6.57;;;;;;;15.81;71.28;101603.38;6346697;28;20051;-75
2022/11/12 11:41:44;;;;;;;;;;;;;;;16.00;68.00;101604.91;6346773;27;20047;-75
2022/11/12 11:45:00;;;;;;;;;;;;;;;16.07;68.36;101593.94;6364427;27;19972;-75
2022/11/12 11:48:22;;;;;;;9.10;5.85;;;;;;;16.05;69.38;101598.44;6362938;27;19920;-75
2022/11/12 11:52:00;;;;;;;9.82;5.63;;;;;;;16.14;65.64;101596.22;6347350;28;20379;-75
2022/11/12 11:55:16;;;;;;;10.68;5.35;;;;;;;16.20;66.29;101591.41;6346544;28;20052;-75
2022/11/12 11:58:38;;;;;;;11.57;5.63;;;;;;;16.08;66.93;101593.00;6347649;28;20479;-75
2022/11/12 12:01:45;;;;;;;12.05;6.30;;;;;;;16.13;67.01;101589.25;6346367;28;20048;-75
2022/11/12 12:04:55;;;;;;;10.38;5.45;;;;;;;16.14;66.06;101590.94;6346266;28;20039;-74
2022/11/12 12:08:06;;;;;;;12.98;6.50;;;;;;;16.07;66.09;101586.03;6329415;28;20051;-74
2022/11/12 12:11:13;;;;;;;12.13;6.15;;;;;;;16.19;65.79;101588.91;6347309;28;20036;-75
2022/11/12 12:14:20;;;;;;;13.77;6.72;;;;;;;16.23;65.64;101588.59;6345919;28;20040;-75
2022/11/12 12:17:58;;;;;;;10.60;5.95;;;;;;;16.23;65.36;101591.25;6347687;28;20104;-74
2022/11/12 12:21:19;;;;;;;13.52;6.00;;;;;;;16.28;66.20;101589.16;6296360;28;20052;-75
2022/11/12 12:24:19;;;;;;;11.77;6.55;;;;;;;16.16;65.26;101584.63;6329557;28;20070;-75
2022/11/12 12:27:33;;;;;;;10.93;5.85;;;;;;;16.09;65.94;101583.31;6363396;27;20487;-74
2022/11/12 12:30:40;;;;;;;10.20;5.65;;;;;;;16.01;66.37;101572.41;6347781;28;20035;-75
2022/11/12 12:34:14;;;;;;;19.10;7.18;;;;;;;16.03;67.28;101571.38;6347369;28;20044;-75
2022/11/12 12:37:57;;;;;;;14.05;6.30;;;;;;;15.99;66.69;101577.75;6329475;28;20540;-75
2022/11/12 12:41:09;;;;;;;12.23;6.05;;;;;;;15.40;68.04;101574.16;6295385;28;20048;-75
2022/11/12 12:44:11;;;;;;;9.00;5.15;;;;;;;15.48;70.07;101559.66;6347151;28;20050;-74
2022/11/12 12:47:13;;;;;;;14.15;5.78;;;;;;;15.71;68.73;101562.75;6345776;28;20044;-75
2022/11/12 12:50:18;;;;;;;13.52;5.93;;;;;;;15.83;69.04;101572.53;6345963;28;20079;-76
2022/11/12 12:53:28;;;;;;;11.35;5.85;;;;;;;15.90;68.89;101570.41;6347293;28;20059;-75
2022/11/12 12:56:33;;;;;;;11.20;5.93;;;;;;;15.89;69.26;101569.53;6347473;28;20035;-75
2022/11/12 12:59:34;;;;;;;15.52;6.82;;;;;;;15.86;67.72;101572.38;6346188;28;20039;-75
2022/11/12 13:02:37;;;;;;;12.00;5.65;;;;;;;15.83;67.68;101569.91;6346212;28;20044;-75
2022/11/12 13:05:41;;;;;;;10.68;5.53;;;;;;;15.78;69.50;101563.25;6362362;27;20059;-74
2022/11/12 13:08:42;;;;;;;10.60;5.90;;;;;;;15.74;69.45;101565.19;6302733;28;20052;-74
2022/11/12 13:15:14;;;;;;;11.05;5.78;;;;;;;15.68;69.05;101563.75;6318805;28;20044;-74
2022/11/12 13:18:37;;;;;;;10.27;6.10;;;;;;;15.57;69.97;101565.31;6325608;28;20061;-74
2022/11/12 13:21:37;;;;;;;11.85;5.22;;;;;;;15.57;68.05;101565.31;6324950;28;20040;-74
2022/11/12 13:25:03;;;;;;;12.40;5.88;;;;;;;15.59;68.48;101568.72;6344850;28;20108;-75
2022/11/12 13:28:06;;;;;;;10.77;4.82;;;;;;;15.58;66.90;101567.00;6361517;27;20144;-75
2022/11/12 13:31:25;;;;;;;10.05;6.25;;;;;;;15.47;69.29;101567.63;6350589;28;20043;-75
2022/11/12 13:34:32;;;;;;;9.60;5.18;;;;;;;15.33;68.04;101557.88;6349803;28;20502;-74
2022/11/12 13:37:33;;;;;;;9.23;5.47;;;;;;;15.24;68.71;101561.91;6349559;28;20502;-74
2022/11/12 13:40:57;;;;;;;11.20;5.32;;;;;;;15.31;68.67;101562.38;6350830;28;20039;-75
2022/11/12 13:43:57;;;;;;;11.73;5.38;;;;;;;15.26;68.52;101565.28;6325520;28;20054;-75
2022/11/12 13:46:59;;;;;;;12.02;5.20;;;;;;;15.13;69.16;101569.53;6326041;28;20044;-74
2022/11/12 13:50:00;;;;;;;7.88;4.93;;;;;;;15.04;69.57;101559.53;6335070;28;20043;-74
2022/11/12 13:53:05;;;;;;;9.50;4.90;;;;;;;14.96;70.93;101565.22;6349017;28;20051;-75
2022/11/12 13:56:08;;;;;;;11.82;5.40;;;;;;;14.89;72.33;101572.59;6349492;28;20069;-75
2022/11/12 13:59:18;;;;;;;14.27;5.15;;;;;;;14.74;72.04;101564.69;6349359;28;20043;-75
2022/11/12 14:02:25;;;;;;;10.77;4.93;;;;;;;14.65;72.04;101566.06;6349165;28;20051;-75
2022/11/12 14:05:28;;;;;;;14.15;7.90;;;;;;;14.52;73.25;101568.47;6332146;28;20081;-75
2022/11/12 14:08:44;;;;;;;24.83;10.40;;;;;;;14.47;73.20;101565.22;6350413;28;20048;-74
2022/11/12 14:12:17;;;;;;;13.13;7.40;;;;;;;14.42;73.97;101562.84;6383326;27;20071;-74
2022/11/12 14:15:32;;;;;;;13.18;7.20;;;;;;;14.34;74.38;101561.56;6348884;28;20047;-75
2022/11/12 14:19:16;;;;;;;10.98;6.45;;;;;;;14.14;75.26;101558.19;6349764;28;20038;-75
2022/11/12 14:22:19;;;;;;;9.95;5.95;;;;;;;14.03;77.57;101557.91;6349909;27;20047;-75
2022/11/12 14:25:27;;;;;;;9.23;5.60;;;;;;;14.00;78.20;101556.31;6349241;28;20047;-75
2022/11/12 14:28:33;;;;;;;11.80;5.90;;;;;;;13.88;78.07;101563.03;6330290;28;20441;-75
2022/11/12 14:31:34;;;;;;;9.77;5.25;;;;;;;13.88;78.94;101557.78;6348344;28;20051;-75
2022/11/12 14:34:35;;;;;;;12.77;5.47;;;;;;;13.78;80.24;101560.94;6349556;28;20062;-76
2022/11/12 14:37:37;;;;;;;9.85;5.63;;;;;;;13.65;80.38;101558.94;6350024;28;20471;-76
2022/11/12 14:40:49;;;;;;;9.40;5.43;;;;;;;13.57;81.59;101561.09;6348409;28;20039;-75
2022/11/12 14:43:53;;;;;;;11.00;6.22;;;;;;;13.35;82.69;101566.53;6339008;28;20404;-75
2022/11/12 14:46:57;;;;;;;14.80;6.70;;;;;;;13.17;84.25;101559.53;6331241;28;20479;-75